Petersburg, AK

10:41 AM AKDT on October 01, 2014 (GMT -0800)
RAWS KAKE AK US | Change Station
CLOSE
Current Station
Personal Weather Station
Location: Kake, AK
Elevation: 399 ft
Nearby Weather Stations

Elev 399 ft 56.97 °N, 133.66 °W | Updated 46 minutes ago

Partly Cloudy
Partly Cloudy
45 °F
Feels Like 41 °F
N
8
Wind Variable Wind from East
Gusts 14.0 mph

Today
High -- | Low -- °F
--% Chance of Precip.
Yesterday
High -- | Low -- °F
Precip. -- in
6:57 AM 6:27 PM
Waxing Crescent, 50% visible
Pressure 29.89 in
Visibility 10.0 miles
Clouds Few 4700 ft
Few 8000 ft
Windchill 41 °F
Dew Point 32 °F
Humidity 60%
Rainfall -999.00 in
Snow Depth 0 in , 0 in , 1 in
UV 2 out of 12
Pollen Not available.
Air Quality Not available.
Flu Activity Not available.
METAR PAFE 301836Z AUTO 19008KT 10SM FEW047 FEW080 12/06 A2989 RMK AO1

More Conditions Fewer Conditions

Pressure 29.89 in
Visibility 10.0 miles
Clouds Few 4700 ft
Few 8000 ft
Windchill 41 °F
Dew Point 32 °F
Humidity 60%
Rainfall -999.00 in
Snow Depth 0 in , 0 in , 1 in
UV 2 out of 12
Pollen Not available.
Air Quality Not available.
Flu Activity Not available.
METAR PAFE 301836Z AUTO 19008KT 10SM FEW047 FEW080 12/06 A2989 RMK AO1

More Conditions Fewer Conditions

10-Day Weather Forecast

Almanac

Astronomy

Oct. 01, 2014 Rise Set
Actual Time 6:57 AM AKDT 6:27 PM AKDT
Civil Twilight 6:19 AM AKDT 7:05 PM AKDT
Nautical Twilight 5:34 AM AKDT 7:49 PM AKDT
Astronomical Twilight 4:48 AM AKDT 8:35 PM AKDT
Moon 2:54 PM AKDT 11:18 PM AKDT
Length of Visible Light 12h 45m
Length of Day
11h 30m
Tomorrow will be 4m 46s shorter.
Waxing Crescent, 50% of the Moon is Illuminated
Today
Waxing Crescent
Oct 1
First Quarter
Oct 8
Full
Oct 15
Last Quarter
Oct 23
New

Today's Extremes

State Highs State Lows

Community

WunderPhotos

Upload Photos

1,758,010 photos uploaded!

WunderBlogs® & News

By Dr. Jeff Masters
Director of Meteorology, Weather Underground
By Kari Strenfel
Meteorologist, Weather Underground
By Christopher C. Burt
Weather Historian, Weather Underground
October 1, 2014
October 1, 2014
October 1, 2014

Nearby

Snow Depth

Station Depth Elevation
Point Mackenzie 1 in 200 ft
Grouse Creek Divide 0 in 700 ft
Mt. Ryan 3 in 2800 ft
Granite Creek 0 in 1240 ft
Moraine 0 in 2100 ft

Earthquake Activity

City Distance Mag. Time & Date
No recent earthquake activity has been reported nearby.
Minimum magnitude displayed is 2.5.

Coastal Water Temperatures

Place Temperature
No Stations Reporting

Nearby Weather Stations